createdAt,value
2023-01-09T00:02:16.605Z,72.70
2023-01-09T00:04:43.647Z,73.50
2023-01-09T00:07:10.648Z,73.30
2023-01-09T00:09:37.760Z,72.60
2023-01-09T00:12:05.095Z,73.20
2023-01-09T00:14:32.152Z,72.70
2023-01-09T00:16:59.268Z,74.20
2023-01-09T00:19:26.369Z,72.90
2023-01-09T00:21:53.476Z,71.90
2023-01-09T00:24:20.501Z,71.70
2023-01-09T00:26:47.468Z,72.80
2023-01-09T00:29:14.522Z,73.00
2023-01-09T00:31:41.499Z,73.50
2023-01-09T00:34:10.609Z,73.00
2023-01-09T00:36:37.750Z,73.40
2023-01-09T00:39:05.960Z,75.50
2023-01-09T00:41:46.489Z,73.20
2023-01-09T00:44:24.668Z,72.40
2023-01-09T00:46:55.953Z,71.30
2023-01-09T00:49:23.674Z,70.70
2023-01-09T00:51:51.466Z,70.20
2023-01-09T00:54:20.413Z,71.40
2023-01-09T00:56:47.974Z,69.50
2023-01-09T00:59:15.071Z,69.80
2023-01-09T01:01:42.273Z,70.70
2023-01-09T01:04:32.314Z,70.90
2023-01-09T01:07:18.199Z,71.70
2023-01-09T01:09:45.190Z,72.00
2023-01-09T01:12:12.106Z,72.50
2023-01-09T01:14:40.053Z,72.60
2023-01-09T01:17:08.352Z,73.10
2023-01-09T01:19:35.927Z,74.30
2023-01-09T01:22:03.539Z,74.70
2023-01-09T01:24:31.003Z,75.50
2023-01-09T01:26:58.091Z,75.70
2023-01-09T01:29:25.138Z,76.20
2023-01-09T01:31:52.483Z,77.80
2023-01-09T01:34:19.809Z,78.20
2023-01-09T01:36:46.825Z,81.20
2023-01-09T01:39:13.858Z,84.20
2023-01-09T01:41:40.892Z,84.20
2023-01-09T01:44:46.191Z,83.80
2023-01-09T01:47:14.695Z,83.30
2023-01-09T01:49:41.746Z,83.90
2023-01-09T01:52:08.856Z,84.90
2023-01-09T01:54:35.939Z,85.70
2023-01-09T01:57:05.407Z,86.70
2023-01-09T01:59:50.629Z,87.10
2023-01-09T02:02:21.235Z,86.70
2023-01-09T02:04:50.901Z,87.60
2023-01-09T02:07:18.074Z,88.90
2023-01-09T02:09:45.281Z,90.50
2023-01-09T02:12:23.824Z,91.60
2023-01-09T02:15:09.566Z,91.90
2023-01-09T02:17:45.522Z,92.80
2023-01-09T02:20:27.756Z,92.70
2023-01-09T02:23:23.251Z,93.00
2023-01-09T02:26:14.457Z,92.70
2023-01-09T02:28:57.022Z,92.10
2023-01-09T02:31:35.856Z,92.10
2023-01-09T02:34:22.396Z,93.30
2023-01-09T02:37:03.200Z,93.30
2023-01-09T02:40:03.189Z,93.90
2023-01-09T02:42:31.766Z,94.40
2023-01-09T02:44:58.692Z,94.20
2023-01-09T02:47:25.839Z,94.60
2023-01-09T02:50:02.112Z,94.70
2023-01-09T02:52:40.836Z,93.40
2023-01-09T02:55:24.634Z,93.90
2023-01-09T02:57:58.132Z,94.30
2023-01-09T03:00:36.634Z,95.10
2023-01-09T03:03:37.101Z,95.20
2023-01-09T03:06:46.557Z,95.90
2023-01-09T03:09:20.388Z,96.60
2023-01-09T03:11:53.178Z,96.50
2023-01-09T03:14:24.318Z,97.00
2023-01-09T03:16:55.885Z,97.50
2023-01-09T03:19:27.025Z,97.10
2023-01-09T03:21:56.164Z,97.20
2023-01-09T03:24:23.196Z,97.60
2023-01-09T03:26:51.206Z,97.90
2023-01-09T03:29:18.159Z,99.10
2023-01-09T03:31:45.190Z,98.60
2023-01-09T03:34:12.304Z,99.10
2023-01-09T03:36:39.362Z,99.10
2023-01-09T03:39:06.445Z,99.70
2023-01-09T03:41:33.568Z,99.90
2023-01-09T03:44:00.523Z,99.90
2023-01-09T03:46:27.439Z,99.90
2023-01-09T03:48:54.461Z,99.90
2023-01-09T03:51:21.543Z,99.90
2023-01-09T03:53:48.560Z,99.90
2023-01-09T03:56:15.703Z,99.90
2023-01-09T03:58:42.701Z,99.90
2023-01-09T04:01:12.748Z,98.70
2023-01-09T04:03:40.720Z,99.90
2023-01-09T04:06:08.366Z,99.90
2023-01-09T04:08:35.483Z,95.90
2023-01-09T04:11:02.567Z,97.00
2023-01-09T04:13:29.656Z,98.50
2023-01-09T04:15:56.739Z,89.90
2023-01-09T04:18:23.808Z,91.90
2023-01-09T04:20:50.926Z,83.50
2023-01-09T04:23:17.870Z,76.30
2023-01-09T04:25:46.027Z,73.50
2023-01-09T04:28:13.184Z,71.00
2023-01-09T04:30:40.230Z,69.50
2023-01-09T04:33:07.332Z,69.50
2023-01-09T04:35:34.390Z,67.70
2023-01-09T04:38:01.458Z,67.20
2023-01-09T04:40:28.495Z,65.60
2023-01-09T04:42:55.562Z,64.90
2023-01-09T04:45:22.655Z,65.10
2023-01-09T04:47:49.677Z,65.60
2023-01-09T04:50:16.991Z,65.50
2023-01-09T04:52:43.925Z,65.40
2023-01-09T04:55:11.034Z,65.10
2023-01-09T04:57:38.149Z,65.50
2023-01-09T05:00:10.002Z,65.00
2023-01-09T05:02:37.677Z,65.10
2023-01-09T05:05:06.468Z,65.40
2023-01-09T05:07:34.266Z,65.40
2023-01-09T05:10:02.257Z,65.70
2023-01-09T05:12:29.483Z,65.70
2023-01-09T05:14:58.061Z,66.00
2023-01-09T05:17:25.069Z,65.70
2023-01-09T05:19:52.175Z,65.70
2023-01-09T05:22:19.220Z,65.80
2023-01-09T05:24:46.265Z,65.70
2023-01-09T05:27:13.393Z,65.20
2023-01-09T05:29:40.454Z,65.50
2023-01-09T05:32:07.450Z,65.40
2023-01-09T05:34:34.982Z,65.40
2023-01-09T05:37:01.950Z,65.90
2023-01-09T05:39:29.104Z,65.90
2023-01-09T05:41:56.175Z,66.00
2023-01-09T05:44:23.224Z,65.70
2023-01-09T05:46:50.294Z,65.90
2023-01-09T05:49:17.469Z,65.80
2023-01-09T05:51:44.509Z,65.70
2023-01-09T05:54:11.469Z,65.50
2023-01-09T05:56:38.497Z,64.90
2023-01-09T05:59:05.628Z,64.80
2023-01-09T06:01:32.701Z,64.90
2023-01-09T06:03:59.790Z,65.00
2023-01-09T06:06:26.914Z,63.90
2023-01-09T06:08:53.894Z,64.30
2023-01-09T06:11:20.963Z,64.30
2023-01-09T06:13:48.031Z,64.20
2023-01-09T06:16:15.153Z,64.10
2023-01-09T06:18:42.217Z,64.90
2023-01-09T06:21:09.235Z,65.70
2023-01-09T06:23:36.378Z,65.80
2023-01-09T06:26:03.494Z,64.90
2023-01-09T06:28:30.624Z,66.00
2023-01-09T06:30:57.798Z,66.00
2023-01-09T06:33:24.986Z,66.20
2023-01-09T06:35:51.995Z,65.50
2023-01-09T06:38:19.369Z,65.90
2023-01-09T06:40:46.439Z,65.10
2023-01-09T06:43:13.485Z,66.80
2023-01-09T06:45:42.026Z,67.10
2023-01-09T06:48:09.101Z,67.90
2023-01-09T06:50:36.204Z,69.00
2023-01-09T06:53:03.572Z,71.00
2023-01-09T06:55:30.780Z,70.70
2023-01-09T06:57:57.740Z,71.50
2023-01-09T07:00:25.390Z,70.30
2023-01-09T07:02:52.374Z,70.60
2023-01-09T07:05:19.359Z,71.60
2023-01-09T07:07:46.284Z,70.10
2023-01-09T07:10:14.411Z,70.50
2023-01-09T07:12:41.494Z,72.30
2023-01-09T07:15:08.850Z,69.90
2023-01-09T07:17:35.997Z,68.40
2023-01-09T07:20:03.681Z,67.30
2023-01-09T07:22:30.874Z,67.60
2023-01-09T07:24:57.940Z,67.60
2023-01-09T07:27:25.115Z,67.70
2023-01-09T07:29:53.518Z,68.70
2023-01-09T07:32:20.684Z,67.90
2023-01-09T07:34:49.291Z,67.60
2023-01-09T07:37:16.369Z,67.50
2023-01-09T07:39:43.813Z,68.00
2023-01-09T07:42:11.561Z,67.50
2023-01-09T07:44:38.865Z,66.50
2023-01-09T07:47:05.982Z,66.40
2023-01-09T07:49:33.264Z,66.50
2023-01-09T07:52:00.439Z,66.70
2023-01-09T07:54:27.600Z,66.60
2023-01-09T07:56:54.831Z,66.40
2023-01-09T07:59:22.062Z,66.30
2023-01-09T08:01:49.192Z,66.90
2023-01-09T08:04:16.355Z,66.70
2023-01-09T08:06:43.612Z,67.10
2023-01-09T08:09:10.800Z,68.00
2023-01-09T08:11:37.757Z,68.20
2023-01-09T08:14:04.945Z,68.00
2023-01-09T08:16:32.099Z,68.40
2023-01-09T08:18:59.168Z,68.50
2023-01-09T08:21:26.214Z,67.90
2023-01-09T08:23:53.249Z,67.80
2023-01-09T08:26:20.294Z,67.60
2023-01-09T08:28:48.515Z,68.00
2023-01-09T08:31:16.534Z,67.90
2023-01-09T08:33:44.055Z,67.70
2023-01-09T08:36:11.190Z,67.50
2023-01-09T08:38:38.189Z,66.80
2023-01-09T08:41:25.252Z,67.10
2023-01-09T08:44:10.843Z,66.40
2023-01-09T08:46:56.642Z,66.20
2023-01-09T08:49:23.630Z,67.00
2023-01-09T08:51:50.746Z,66.70
2023-01-09T08:54:17.743Z,66.30
2023-01-09T08:56:44.727Z,66.20
2023-01-09T08:59:11.980Z,66.10
2023-01-09T09:01:39.022Z,66.20
2023-01-09T09:04:06.237Z,65.50
2023-01-09T09:06:34.359Z,65.50
2023-01-09T09:09:06.673Z,70.00
2023-01-09T09:11:38.627Z,65.20
2023-01-09T09:14:37.955Z,64.50
2023-01-09T09:17:04.952Z,64.80
2023-01-09T09:19:32.018Z,63.90
2023-01-09T09:21:59.184Z,66.40
2023-01-09T09:24:26.379Z,64.30
2023-01-09T09:26:53.543Z,63.60
2023-01-09T09:33:04.799Z,61.80
2023-01-09T09:35:33.857Z,62.10
2023-01-09T09:38:05.170Z,62.90
2023-01-09T09:41:29.875Z,61.10
2023-01-09T09:44:33.500Z,60.00
2023-01-09T09:47:12.110Z,59.60
2023-01-09T09:49:51.261Z,59.90
2023-01-09T09:52:33.771Z,60.30
2023-01-09T09:55:05.817Z,58.30
2023-01-09T09:57:36.667Z,57.90
2023-01-09T10:00:06.147Z,58.00
2023-01-09T10:02:45.515Z,58.40
2023-01-09T10:05:30.578Z,58.80
2023-01-09T10:08:15.342Z,58.60
2023-01-09T10:10:54.420Z,58.90
2023-01-09T10:13:43.667Z,59.40
2023-01-09T10:16:22.863Z,59.30
2023-01-09T10:18:55.966Z,59.70
2023-01-09T10:22:04.855Z,59.70
2023-01-09T10:24:55.924Z,60.30
2023-01-09T10:27:41.453Z,60.30
2023-01-09T10:30:24.398Z,59.50
2023-01-09T10:33:01.516Z,59.70
2023-01-09T10:35:47.724Z,60.60
2023-01-09T10:38:20.539Z,60.10
2023-01-09T10:41:00.660Z,60.00
2023-01-09T10:43:50.643Z,59.80
2023-01-09T10:46:28.461Z,59.60
2023-01-09T10:49:00.155Z,59.50
2023-01-09T10:51:49.818Z,59.20
2023-01-09T10:54:20.130Z,60.10
2023-01-09T10:57:00.859Z,59.90
2023-01-09T10:59:28.013Z,59.50
2023-01-09T11:01:55.179Z,59.60
2023-01-09T11:04:29.547Z,59.40
2023-01-09T11:07:04.958Z,59.40
2023-01-09T11:09:59.944Z,59.60
2023-01-09T11:12:29.556Z,60.40
2023-01-09T11:14:56.636Z,60.40
2023-01-09T11:17:27.828Z,61.30
2023-01-09T11:20:04.061Z,62.20
2023-01-09T11:22:52.278Z,60.70
2023-01-09T11:25:22.483Z,59.90
2023-01-09T11:28:18.911Z,60.80
2023-01-09T11:31:21.095Z,61.20
2023-01-09T11:33:50.278Z,61.00
2023-01-09T11:36:17.383Z,61.10
2023-01-09T11:38:59.093Z,62.70
2023-01-09T11:41:35.415Z,59.50
2023-01-09T11:44:04.761Z,59.20
2023-01-09T11:46:41.946Z,59.60
2023-01-09T11:49:15.349Z,60.00
2023-01-09T11:51:43.485Z,62.00
2023-01-09T11:54:29.126Z,59.90
2023-01-09T11:56:57.149Z,60.30
2023-01-09T11:59:30.058Z,61.40
2023-01-09T12:02:15.622Z,60.80
2023-01-09T12:04:56.141Z,63.30
2023-01-09T12:07:50.917Z,60.70
2023-01-09T12:10:39.457Z,61.20
2023-01-09T12:13:37.503Z,60.50
2023-01-09T12:16:21.253Z,61.30
2023-01-09T12:18:48.309Z,61.60
2023-01-09T12:21:18.242Z,61.70
2023-01-09T12:24:06.163Z,61.70
2023-01-09T12:26:39.612Z,62.50
2023-01-09T12:29:29.987Z,62.00
2023-01-09T12:32:16.509Z,61.80
2023-01-09T12:34:55.547Z,62.40
2023-01-09T12:38:05.379Z,61.80
2023-01-09T12:40:37.642Z,61.90
2023-01-09T12:43:16.993Z,61.70
2023-01-09T12:46:16.894Z,62.30
2023-01-09T12:48:53.777Z,61.50
2023-01-09T12:51:39.171Z,62.70
2023-01-09T12:54:26.463Z,62.20
2023-01-09T12:57:04.229Z,62.40
2023-01-09T13:00:09.969Z,61.80
2023-01-09T13:03:00.388Z,62.20
2023-01-09T13:05:42.944Z,62.10
2023-01-09T13:08:20.953Z,63.50
2023-01-09T13:11:20.442Z,63.30
2023-01-09T13:13:50.846Z,63.40
2023-01-09T13:16:23.969Z,62.80
2023-01-09T13:19:01.173Z,63.20
2023-01-09T13:21:28.318Z,62.60
2023-01-09T13:24:10.966Z,63.30
2023-01-09T13:26:41.969Z,63.00
2023-01-09T13:29:18.722Z,63.80
2023-01-09T13:31:48.651Z,63.10
2023-01-09T13:34:25.160Z,63.60
2023-01-09T13:36:55.749Z,62.70
2023-01-09T13:39:38.760Z,63.60
2023-01-09T13:42:25.459Z,63.60
2023-01-09T13:45:08.747Z,63.90
2023-01-09T13:47:35.755Z,62.50
2023-01-09T13:50:23.050Z,64.10
2023-01-09T13:52:50.426Z,63.10
2023-01-09T13:55:20.404Z,64.10
2023-01-09T13:58:05.843Z,63.00
2023-01-09T14:00:35.603Z,62.90
2023-01-09T14:03:31.535Z,64.70
2023-01-09T14:06:03.131Z,64.00
2023-01-09T14:08:32.896Z,65.00
2023-01-09T14:11:02.138Z,63.50
2023-01-09T14:13:39.502Z,63.90
2023-01-09T14:16:23.894Z,64.30
2023-01-09T14:19:03.224Z,64.40
2023-01-09T14:21:53.711Z,65.90
2023-01-09T14:24:28.107Z,67.80
2023-01-09T14:26:58.214Z,66.70
2023-01-09T14:29:37.131Z,67.50
2023-01-09T14:32:26.735Z,69.30
2023-01-09T14:35:08.564Z,72.40
2023-01-09T14:37:38.317Z,74.30
2023-01-09T14:40:26.179Z,77.20
2023-01-09T14:42:55.547Z,80.20
2023-01-09T14:45:26.304Z,86.70
2023-01-09T14:47:59.404Z,89.20
2023-01-09T14:50:46.600Z,92.80
2023-01-09T14:53:34.434Z,96.10
2023-01-09T14:56:06.039Z,98.70
2023-01-09T14:58:34.948Z,99.90
2023-01-09T15:01:15.560Z,99.90
2023-01-09T15:03:45.398Z,99.90
2023-01-09T15:06:24.391Z,99.90
2023-01-09T15:09:33.570Z,99.90
2023-01-09T15:12:07.192Z,99.90
2023-01-09T15:14:46.118Z,99.90
2023-01-09T15:17:27.483Z,99.90
2023-01-09T15:19:56.282Z,99.90
2023-01-09T15:22:32.106Z,99.90
2023-01-09T15:25:12.154Z,99.90
2023-01-09T15:27:56.352Z,99.90
2023-01-09T15:30:34.361Z,99.90
2023-01-09T15:33:04.631Z,99.90
2023-01-09T15:35:32.549Z,99.90
2023-01-09T15:37:59.787Z,99.90
2023-01-09T15:40:33.649Z,99.90
2023-01-09T15:43:01.781Z,99.90
2023-01-09T15:45:39.082Z,99.90
2023-01-09T15:48:15.238Z,99.90
2023-01-09T15:50:42.775Z,99.90
2023-01-09T15:53:22.589Z,99.90
2023-01-09T15:56:07.285Z,99.90
2023-01-09T15:58:37.019Z,99.90
2023-01-09T16:01:30.076Z,99.90
2023-01-09T16:04:05.259Z,99.90
2023-01-09T16:06:35.924Z,99.90
2023-01-09T16:09:04.092Z,99.90
2023-01-09T16:11:35.124Z,99.90
2023-01-09T16:14:34.689Z,99.90
2023-01-09T16:17:08.128Z,99.90
2023-01-09T16:19:53.020Z,99.90
2023-01-09T16:22:27.529Z,99.90
2023-01-09T16:25:03.022Z,99.90
2023-01-09T16:27:33.419Z,99.90
2023-01-09T16:30:07.037Z,99.90
2023-01-09T16:32:36.679Z,99.90
2023-01-09T16:35:07.706Z,99.90
2023-01-09T16:37:37.457Z,99.90
2023-01-09T16:40:37.244Z,99.90
2023-01-09T16:43:08.281Z,99.90
2023-01-09T16:45:40.368Z,99.90
2023-01-09T16:48:25.777Z,99.90
2023-01-09T16:50:52.857Z,99.90
2023-01-09T16:53:28.651Z,99.90
2023-01-09T16:55:55.904Z,99.90
2023-01-09T16:58:34.612Z,99.90
2023-01-09T17:01:01.614Z,99.90
2023-01-09T17:03:28.731Z,99.90
2023-01-09T17:05:58.901Z,99.90
2023-01-09T17:08:35.049Z,99.90
2023-01-09T17:11:02.760Z,99.90
2023-01-09T17:13:30.521Z,99.90
2023-01-09T17:15:59.017Z,99.90
2023-01-09T17:18:27.797Z,99.90
2023-01-09T17:20:58.068Z,99.90
2023-01-09T17:23:26.221Z,99.90
2023-01-09T17:26:18.030Z,99.90
2023-01-09T17:28:49.169Z,99.90
2023-01-09T17:31:17.020Z,99.90
2023-01-09T17:33:44.271Z,99.90
2023-01-09T17:36:34.756Z,99.90
2023-01-09T17:39:02.418Z,99.90
2023-01-09T17:41:30.933Z,99.90
2023-01-09T17:43:59.683Z,99.90
2023-01-09T17:46:35.621Z,99.90
2023-01-09T17:49:03.735Z,99.90
2023-01-09T17:51:31.660Z,99.90
2023-01-09T17:53:59.317Z,99.90
2023-01-09T17:56:29.598Z,99.90
2023-01-09T17:58:56.869Z,99.90
2023-01-09T18:01:23.979Z,99.90
2023-01-09T18:03:51.664Z,99.90
2023-01-09T18:06:20.632Z,99.90
2023-01-09T18:08:48.206Z,99.90
2023-01-09T18:11:18.631Z,99.90
2023-01-09T18:13:47.719Z,99.90
2023-01-09T18:16:21.344Z,99.90
2023-01-09T18:18:49.002Z,99.90
2023-01-09T18:21:19.207Z,99.90
2023-01-09T18:23:47.763Z,99.90
2023-01-09T18:26:21.933Z,99.90
2023-01-09T18:28:51.524Z,99.90
2023-01-09T18:31:22.895Z,99.90
2023-01-09T18:33:54.734Z,99.90
2023-01-09T18:36:29.384Z,99.90
2023-01-09T18:38:59.318Z,99.90
2023-01-09T18:41:27.205Z,99.90
2023-01-09T18:43:57.148Z,99.90
2023-01-09T18:46:24.852Z,99.90
2023-01-09T18:48:53.986Z,99.90
2023-01-09T18:51:22.049Z,99.90
2023-01-09T18:53:50.371Z,99.90
2023-01-09T18:56:19.364Z,99.90
2023-01-09T18:58:47.364Z,99.90
2023-01-09T19:01:15.603Z,99.90
2023-01-09T19:03:43.111Z,99.90
2023-01-09T19:06:10.589Z,99.90
2023-01-09T19:08:37.985Z,99.90
2023-01-09T19:11:05.443Z,99.90
2023-01-09T19:13:35.298Z,99.90
2023-01-09T19:16:03.311Z,99.90
2023-01-09T19:18:36.845Z,99.90
2023-01-09T19:21:17.153Z,99.90
2023-01-09T19:23:45.131Z,99.90
2023-01-09T19:26:26.492Z,99.90
2023-01-09T19:28:58.118Z,99.90
2023-01-09T19:31:28.519Z,99.90
2023-01-09T19:33:56.685Z,99.90
2023-01-09T19:36:23.808Z,99.90
2023-01-09T19:38:57.035Z,99.90
2023-01-09T19:41:24.146Z,99.90
2023-01-09T19:43:51.309Z,99.90
2023-01-09T19:46:21.218Z,99.90
2023-01-09T19:48:48.950Z,99.90
2023-01-09T19:51:18.233Z,99.90
2023-01-09T19:53:50.191Z,99.90
2023-01-09T19:56:19.971Z,99.90
2023-01-09T19:58:55.021Z,99.90
2023-01-09T20:01:25.314Z,99.90
2023-01-09T20:03:53.402Z,99.90
2023-01-09T20:06:24.893Z,99.90
2023-01-09T20:09:00.784Z,99.90
2023-01-09T20:11:30.263Z,99.90
2023-01-09T20:13:57.544Z,99.90
2023-01-09T20:16:28.592Z,99.90
2023-01-09T20:18:57.948Z,99.90
2023-01-09T20:21:27.031Z,99.90
2023-01-09T20:23:56.589Z,99.90
2023-01-09T20:26:24.758Z,99.90
2023-01-09T20:28:52.194Z,99.90
2023-01-09T20:31:21.048Z,99.90
2023-01-09T20:33:49.744Z,99.90
2023-01-09T20:36:17.617Z,99.90
2023-01-09T20:38:45.014Z,99.90
2023-01-09T20:41:23.148Z,99.90
2023-01-09T20:43:51.468Z,99.90
2023-01-09T20:46:19.849Z,99.90
2023-01-09T20:48:47.674Z,99.90
2023-01-09T20:51:14.817Z,99.90
2023-01-09T20:53:55.808Z,99.90
2023-01-09T20:56:27.978Z,99.90
2023-01-09T20:58:55.996Z,99.90
2023-01-09T21:01:24.321Z,99.90
2023-01-09T21:03:52.853Z,99.90
2023-01-09T21:06:22.080Z,99.90
2023-01-09T21:08:51.169Z,99.90
2023-01-09T21:11:19.462Z,99.90
2023-01-09T21:13:46.521Z,99.90
2023-01-09T21:16:17.111Z,99.90
2023-01-09T21:18:44.657Z,99.90
2023-01-09T21:21:14.449Z,99.90
2023-01-09T21:24:01.801Z,99.90
2023-01-09T21:26:30.977Z,99.90
2023-01-09T21:29:08.410Z,99.90
2023-01-09T21:31:35.867Z,99.90
2023-01-09T21:34:08.739Z,99.90
2023-01-09T21:36:36.342Z,99.90
2023-01-09T21:39:07.455Z,99.90
2023-01-09T21:41:53.665Z,99.90
2023-01-09T21:44:39.283Z,99.90
2023-01-09T21:47:06.331Z,99.90
2023-01-09T21:49:35.336Z,99.90
2023-01-09T21:52:04.778Z,99.90
2023-01-09T21:54:35.143Z,99.90
2023-01-09T21:57:02.905Z,99.90
2023-01-09T21:59:30.020Z,99.90
2023-01-09T22:02:07.116Z,99.90
2023-01-09T22:04:34.190Z,99.90
2023-01-09T22:07:02.012Z,99.90
2023-01-09T22:09:29.455Z,99.90
2023-01-09T22:11:57.970Z,99.90
2023-01-09T22:14:25.126Z,99.90
2023-01-09T22:16:52.065Z,99.90
2023-01-09T22:19:19.275Z,99.90
2023-01-09T22:21:47.071Z,99.90
2023-01-09T22:24:16.236Z,99.90
2023-01-09T22:26:43.491Z,99.90
2023-01-09T22:29:10.573Z,99.90
2023-01-09T22:31:40.265Z,99.90
2023-01-09T22:34:07.862Z,99.90
2023-01-09T22:36:34.994Z,99.90
2023-01-09T22:39:02.189Z,99.90
2023-01-09T22:41:30.700Z,99.90
2023-01-09T22:43:59.012Z,99.90
2023-01-09T22:46:28.134Z,99.90
2023-01-09T22:48:55.133Z,99.90
2023-01-09T22:51:24.703Z,99.90
2023-01-09T22:53:51.790Z,99.90
2023-01-09T22:56:24.688Z,99.90
2023-01-09T22:58:53.401Z,99.90
2023-01-09T23:01:21.413Z,99.90
2023-01-09T23:03:48.926Z,99.90
2023-01-09T23:06:18.380Z,99.90
2023-01-09T23:08:46.343Z,99.90
2023-01-09T23:11:18.114Z,99.90
2023-01-09T23:13:56.470Z,99.90
2023-01-09T23:16:23.528Z,99.90
2023-01-09T23:18:50.510Z,99.90
2023-01-09T23:21:18.184Z,99.90
2023-01-09T23:23:45.291Z,99.90
2023-01-09T23:26:12.308Z,99.90
2023-01-09T23:28:41.985Z,99.90
2023-01-09T23:31:08.944Z,99.90
2023-01-09T23:33:36.398Z,99.90
2023-01-09T23:36:03.651Z,99.90
2023-01-09T23:38:31.826Z,99.90
2023-01-09T23:41:11.075Z,99.90
2023-01-09T23:43:38.211Z,99.90
2023-01-09T23:46:05.384Z,99.90
2023-01-09T23:48:32.450Z,99.90
2023-01-09T23:50:59.448Z,99.90
2023-01-09T23:53:26.725Z,99.90
2023-01-09T23:55:57.041Z,99.90
2023-01-09T23:58:24.622Z,99.90
